sensor_id;sensor_type;location;lat;lon;timestamp;temperature;humidity
57664;DHT22;43493;53.098;6.064;2022-09-09T00:00:24;15.00;99.90
57664;DHT22;43493;53.098;6.064;2022-09-09T00:06:08;15.00;99.90
57664;DHT22;43493;53.098;6.064;2022-09-09T00:08:45;15.00;99.90
57664;DHT22;43493;53.098;6.064;2022-09-09T00:11:36;14.90;99.90
57664;DHT22;43493;53.098;6.064;2022-09-09T00:14:54;14.90;99.90
57664;DHT22;43493;53.098;6.064;2022-09-09T00:17:09;14.90;99.90
57664;DHT22;43493;53.098;6.064;2022-09-09T00:19:44;14.90;99.90
57664;DHT22;43493;53.098;6.064;2022-09-09T00:22:20;14.90;99.90
57664;DHT22;43493;53.098;6.064;2022-09-09T00:24:51;14.90;99.90
57664;DHT22;43493;53.098;6.064;2022-09-09T00:27:30;14.90;99.90
57664;DHT22;43493;53.098;6.064;2022-09-09T00:30:12;14.90;99.90
57664;DHT22;43493;53.098;6.064;2022-09-09T00:32:39;14.90;99.90
57664;DHT22;43493;53.098;6.064;2022-09-09T00:35:16;14.90;99.90
57664;DHT22;43493;53.098;6.064;2022-09-09T00:37:45;14.90;99.90
57664;DHT22;43493;53.098;6.064;2022-09-09T00:40:31;14.80;99.90
57664;DHT22;43493;53.098;6.064;2022-09-09T00:43:27;14.80;99.90
57664;DHT22;43493;53.098;6.064;2022-09-09T00:54:24;14.80;99.90
57664;DHT22;43493;53.098;6.064;2022-09-09T01:11:02;14.80;99.90
57664;DHT22;43493;53.098;6.064;2022-09-09T01:15:58;14.80;99.90
57664;DHT22;43493;53.098;6.064;2022-09-09T01:18:37;14.80;99.90
57664;DHT22;43493;53.098;6.064;2022-09-09T01:26:46;14.80;99.90
57664;DHT22;43493;53.098;6.064;2022-09-09T01:29:15;14.70;99.90
57664;DHT22;43493;53.098;6.064;2022-09-09T01:31:52;14.70;99.90
57664;DHT22;43493;53.098;6.064;2022-09-09T01:34:18;14.80;99.90
57664;DHT22;43493;53.098;6.064;2022-09-09T01:39:19;14.70;99.90
57664;DHT22;43493;53.098;6.064;2022-09-09T01:41:45;14.80;99.90
57664;DHT22;43493;53.098;6.064;2022-09-09T01:44:11;14.70;99.90
57664;DHT22;43493;53.098;6.064;2022-09-09T01:46:37;14.70;99.90
57664;DHT22;43493;53.098;6.064;2022-09-09T01:49:05;14.70;99.90
57664;DHT22;43493;53.098;6.064;2022-09-09T01:51:33;14.70;99.90
57664;DHT22;43493;53.098;6.064;2022-09-09T01:53:59;14.70;99.90
57664;DHT22;43493;53.098;6.064;2022-09-09T01:56:53;14.70;99.90
57664;DHT22;43493;53.098;6.064;2022-09-09T01:59:37;14.70;99.90
57664;DHT22;43493;53.098;6.064;2022-09-09T02:04:45;14.70;99.90
57664;DHT22;43493;53.098;6.064;2022-09-09T02:09:43;14.70;99.90
57664;DHT22;43493;53.098;6.064;2022-09-09T02:12:16;14.70;99.90
57664;DHT22;43493;53.098;6.064;2022-09-09T02:14:54;14.70;99.90
57664;DHT22;43493;53.098;6.064;2022-09-09T02:17:28;14.70;99.90
57664;DHT22;43493;53.098;6.064;2022-09-09T02:20:06;14.70;99.90
57664;DHT22;43493;53.098;6.064;2022-09-09T02:22:34;14.60;99.90
57664;DHT22;43493;53.098;6.064;2022-09-09T02:25:02;14.60;99.90
57664;DHT22;43493;53.098;6.064;2022-09-09T02:27:30;14.60;99.90
57664;DHT22;43493;53.098;6.064;2022-09-09T02:29:58;14.70;99.90
57664;DHT22;43493;53.098;6.064;2022-09-09T02:32:29;14.60;99.90
57664;DHT22;43493;53.098;6.064;2022-09-09T02:35:05;14.50;99.90
57664;DHT22;43493;53.098;6.064;2022-09-09T02:37:37;14.60;99.90
57664;DHT22;43493;53.098;6.064;2022-09-09T02:40:04;14.60;99.90
57664;DHT22;43493;53.098;6.064;2022-09-09T02:42:31;14.50;99.90
57664;DHT22;43493;53.098;6.064;2022-09-09T02:44:56;14.50;99.90
57664;DHT22;43493;53.098;6.064;2022-09-09T02:50:33;14.50;99.90
57664;DHT22;43493;53.098;6.064;2022-09-09T02:55:55;14.50;99.90
57664;DHT22;43493;53.098;6.064;2022-09-09T02:58:22;14.60;99.90
57664;DHT22;43493;53.098;6.064;2022-09-09T03:00:50;14.60;99.90
57664;DHT22;43493;53.098;6.064;2022-09-09T03:03:18;14.60;99.90
57664;DHT22;43493;53.098;6.064;2022-09-09T03:05:45;14.60;99.90
57664;DHT22;43493;53.098;6.064;2022-09-09T03:08:11;14.60;99.90
57664;DHT22;43493;53.098;6.064;2022-09-09T03:10:38;14.60;99.90
57664;DHT22;43493;53.098;6.064;2022-09-09T03:13:04;14.60;99.90
57664;DHT22;43493;53.098;6.064;2022-09-09T03:15:33;14.60;99.90
57664;DHT22;43493;53.098;6.064;2022-09-09T03:17:59;14.60;99.90
57664;DHT22;43493;53.098;6.064;2022-09-09T03:20:26;14.60;99.90
57664;DHT22;43493;53.098;6.064;2022-09-09T03:22:53;14.60;99.90
57664;DHT22;43493;53.098;6.064;2022-09-09T03:25:20;14.60;99.90
57664;DHT22;43493;53.098;6.064;2022-09-09T03:27:46;14.60;99.90
57664;DHT22;43493;53.098;6.064;2022-09-09T03:30:12;14.60;99.90
57664;DHT22;43493;53.098;6.064;2022-09-09T03:32:37;14.60;99.90
57664;DHT22;43493;53.098;6.064;2022-09-09T03:35:03;14.60;99.90
57664;DHT22;43493;53.098;6.064;2022-09-09T03:37:29;14.60;99.90
57664;DHT22;43493;53.098;6.064;2022-09-09T03:39:55;14.60;99.90
57664;DHT22;43493;53.098;6.064;2022-09-09T03:42:21;14.70;99.90
57664;DHT22;43493;53.098;6.064;2022-09-09T03:44:47;14.60;99.90
57664;DHT22;43493;53.098;6.064;2022-09-09T03:47:18;14.70;99.90
57664;DHT22;43493;53.098;6.064;2022-09-09T03:49:44;14.60;99.90
57664;DHT22;43493;53.098;6.064;2022-09-09T03:52:10;14.60;99.90
57664;DHT22;43493;53.098;6.064;2022-09-09T03:54:36;14.60;99.90
57664;DHT22;43493;53.098;6.064;2022-09-09T03:57:02;14.50;99.90
57664;DHT22;43493;53.098;6.064;2022-09-09T03:59:28;14.60;99.90
57664;DHT22;43493;53.098;6.064;2022-09-09T04:01:54;14.60;99.90
57664;DHT22;43493;53.098;6.064;2022-09-09T04:04:20;14.60;99.90
57664;DHT22;43493;53.098;6.064;2022-09-09T04:06:46;14.60;99.90
57664;DHT22;43493;53.098;6.064;2022-09-09T04:09:14;14.60;99.90
57664;DHT22;43493;53.098;6.064;2022-09-09T04:11:40;14.60;99.90
57664;DHT22;43493;53.098;6.064;2022-09-09T04:14:05;14.60;99.90
57664;DHT22;43493;53.098;6.064;2022-09-09T04:16:32;14.50;99.90
57664;DHT22;43493;53.098;6.064;2022-09-09T04:18:58;14.50;99.90
57664;DHT22;43493;53.098;6.064;2022-09-09T04:21:25;14.50;99.90
57664;DHT22;43493;53.098;6.064;2022-09-09T04:23:51;14.50;99.90
57664;DHT22;43493;53.098;6.064;2022-09-09T04:26:17;14.50;99.90
57664;DHT22;43493;53.098;6.064;2022-09-09T04:28:43;14.50;99.90
57664;DHT22;43493;53.098;6.064;2022-09-09T04:31:20;14.60;99.90
57664;DHT22;43493;53.098;6.064;2022-09-09T04:33:48;14.60;99.90
57664;DHT22;43493;53.098;6.064;2022-09-09T04:36:15;14.60;99.90
57664;DHT22;43493;53.098;6.064;2022-09-09T04:38:41;14.60;99.90
57664;DHT22;43493;53.098;6.064;2022-09-09T04:41:07;14.60;99.90
57664;DHT22;43493;53.098;6.064;2022-09-09T04:43:33;14.60;99.90
57664;DHT22;43493;53.098;6.064;2022-09-09T04:45:59;14.60;99.90
57664;DHT22;43493;53.098;6.064;2022-09-09T04:48:25;14.60;99.90
57664;DHT22;43493;53.098;6.064;2022-09-09T04:50:56;14.60;99.90
57664;DHT22;43493;53.098;6.064;2022-09-09T04:53:23;14.60;99.90
57664;DHT22;43493;53.098;6.064;2022-09-09T04:55:48;14.60;99.90
57664;DHT22;43493;53.098;6.064;2022-09-09T04:58:14;14.60;99.90
57664;DHT22;43493;53.098;6.064;2022-09-09T05:00:41;14.60;99.90
57664;DHT22;43493;53.098;6.064;2022-09-09T05:03:08;14.60;99.90
57664;DHT22;43493;53.098;6.064;2022-09-09T05:05:34;14.60;99.90
57664;DHT22;43493;53.098;6.064;2022-09-09T05:08:05;14.60;99.90
57664;DHT22;43493;53.098;6.064;2022-09-09T05:10:33;14.60;99.90
57664;DHT22;43493;53.098;6.064;2022-09-09T05:12:59;14.60;99.90
57664;DHT22;43493;53.098;6.064;2022-09-09T05:15:25;14.60;99.90
57664;DHT22;43493;53.098;6.064;2022-09-09T05:17:51;14.60;99.90
57664;DHT22;43493;53.098;6.064;2022-09-09T05:20:18;14.60;99.90
57664;DHT22;43493;53.098;6.064;2022-09-09T05:22:44;14.60;99.90
57664;DHT22;43493;53.098;6.064;2022-09-09T05:25:10;14.60;99.90
57664;DHT22;43493;53.098;6.064;2022-09-09T05:27:36;14.60;99.90
57664;DHT22;43493;53.098;6.064;2022-09-09T05:30:01;14.60;99.90
57664;DHT22;43493;53.098;6.064;2022-09-09T05:32:29;14.60;99.90
57664;DHT22;43493;53.098;6.064;2022-09-09T05:34:57;14.60;99.90
57664;DHT22;43493;53.098;6.064;2022-09-09T05:37:24;14.60;99.90
57664;DHT22;43493;53.098;6.064;2022-09-09T05:39:50;14.60;99.90
57664;DHT22;43493;53.098;6.064;2022-09-09T05:42:16;14.60;99.90
57664;DHT22;43493;53.098;6.064;2022-09-09T05:44:42;14.60;99.90
57664;DHT22;43493;53.098;6.064;2022-09-09T05:47:08;14.60;99.90
57664;DHT22;43493;53.098;6.064;2022-09-09T05:49:34;14.60;99.90
57664;DHT22;43493;53.098;6.064;2022-09-09T05:52:00;14.60;99.90
57664;DHT22;43493;53.098;6.064;2022-09-09T05:54:25;14.60;99.90
57664;DHT22;43493;53.098;6.064;2022-09-09T05:56:51;14.60;99.90
57664;DHT22;43493;53.098;6.064;2022-09-09T05:59:19;14.60;99.90
57664;DHT22;43493;53.098;6.064;2022-09-09T06:01:45;14.70;99.90
57664;DHT22;43493;53.098;6.064;2022-09-09T06:04:10;14.60;99.90
57664;DHT22;43493;53.098;6.064;2022-09-09T06:06:38;14.60;99.90
57664;DHT22;43493;53.098;6.064;2022-09-09T06:09:06;14.70;99.90
57664;DHT22;43493;53.098;6.064;2022-09-09T06:11:35;14.70;99.90
57664;DHT22;43493;53.098;6.064;2022-09-09T06:14:02;14.70;99.90
57664;DHT22;43493;53.098;6.064;2022-09-09T06:16:29;14.80;99.90
57664;DHT22;43493;53.098;6.064;2022-09-09T06:18:56;14.80;99.90
57664;DHT22;43493;53.098;6.064;2022-09-09T06:21:36;14.80;99.90
57664;DHT22;43493;53.098;6.064;2022-09-09T06:24:03;14.80;99.90
57664;DHT22;43493;53.098;6.064;2022-09-09T06:26:37;14.90;99.90
57664;DHT22;43493;53.098;6.064;2022-09-09T06:29:04;14.80;99.90
57664;DHT22;43493;53.098;6.064;2022-09-09T06:31:31;14.90;99.90
57664;DHT22;43493;53.098;6.064;2022-09-09T06:33:59;14.80;99.90
57664;DHT22;43493;53.098;6.064;2022-09-09T06:36:37;14.80;99.90
57664;DHT22;43493;53.098;6.064;2022-09-09T06:39:03;14.80;99.90
57664;DHT22;43493;53.098;6.064;2022-09-09T06:41:31;14.90;99.90
57664;DHT22;43493;53.098;6.064;2022-09-09T06:43:57;14.90;99.90
57664;DHT22;43493;53.098;6.064;2022-09-09T06:46:25;14.90;99.90
57664;DHT22;43493;53.098;6.064;2022-09-09T06:48:54;14.90;99.90
57664;DHT22;43493;53.098;6.064;2022-09-09T06:51:27;14.90;99.90
57664;DHT22;43493;53.098;6.064;2022-09-09T06:53:54;14.90;99.90
57664;DHT22;43493;53.098;6.064;2022-09-09T06:56:29;14.80;99.90
57664;DHT22;43493;53.098;6.064;2022-09-09T06:58:57;14.90;99.90
57664;DHT22;43493;53.098;6.064;2022-09-09T07:01:28;14.90;99.90
57664;DHT22;43493;53.098;6.064;2022-09-09T07:03:56;15.00;99.90
57664;DHT22;43493;53.098;6.064;2022-09-09T07:06:29;15.00;99.90
57664;DHT22;43493;53.098;6.064;2022-09-09T07:09:00;15.00;99.90
57664;DHT22;43493;53.098;6.064;2022-09-09T07:11:30;15.10;99.90
57664;DHT22;43493;53.098;6.064;2022-09-09T07:13:57;15.10;99.90
57664;DHT22;43493;53.098;6.064;2022-09-09T07:16:24;15.20;99.90
57664;DHT22;43493;53.098;6.064;2022-09-09T07:18:51;15.40;99.90
57664;DHT22;43493;53.098;6.064;2022-09-09T07:21:18;15.60;99.90
57664;DHT22;43493;53.098;6.064;2022-09-09T07:23:45;15.80;99.90
57664;DHT22;43493;53.098;6.064;2022-09-09T07:26:19;16.10;99.90
57664;DHT22;43493;53.098;6.064;2022-09-09T07:28:45;16.30;99.90
57664;DHT22;43493;53.098;6.064;2022-09-09T07:31:16;16.70;99.90
57664;DHT22;43493;53.098;6.064;2022-09-09T07:33:43;16.80;99.90
57664;DHT22;43493;53.098;6.064;2022-09-09T07:36:15;17.00;99.90
57664;DHT22;43493;53.098;6.064;2022-09-09T07:38:43;17.10;99.90
57664;DHT22;43493;53.098;6.064;2022-09-09T07:41:15;17.50;99.90
57664;DHT22;43493;53.098;6.064;2022-09-09T07:43:43;17.60;99.90
57664;DHT22;43493;53.098;6.064;2022-09-09T07:46:10;17.70;99.90
57664;DHT22;43493;53.098;6.064;2022-09-09T07:48:37;17.60;99.90
57664;DHT22;43493;53.098;6.064;2022-09-09T07:51:12;17.30;99.90
57664;DHT22;43493;53.098;6.064;2022-09-09T07:53:38;17.30;99.90
57664;DHT22;43493;53.098;6.064;2022-09-09T07:56:07;17.30;99.90
57664;DHT22;43493;53.098;6.064;2022-09-09T07:58:37;17.40;99.90
57664;DHT22;43493;53.098;6.064;2022-09-09T08:01:21;17.60;99.90
57664;DHT22;43493;53.098;6.064;2022-09-09T08:03:56;17.60;99.90
57664;DHT22;43493;53.098;6.064;2022-09-09T08:06:25;17.70;99.90
57664;DHT22;43493;53.098;6.064;2022-09-09T08:08:52;17.70;99.90
57664;DHT22;43493;53.098;6.064;2022-09-09T08:11:18;17.80;99.90
57664;DHT22;43493;53.098;6.064;2022-09-09T08:13:44;17.80;99.90
57664;DHT22;43493;53.098;6.064;2022-09-09T08:16:18;17.80;99.90
57664;DHT22;43493;53.098;6.064;2022-09-09T08:18:47;17.90;99.90
57664;DHT22;43493;53.098;6.064;2022-09-09T08:21:17;17.90;99.90
57664;DHT22;43493;53.098;6.064;2022-09-09T08:23:45;18.00;99.90
57664;DHT22;43493;53.098;6.064;2022-09-09T08:26:17;18.20;99.90
57664;DHT22;43493;53.098;6.064;2022-09-09T08:28:44;18.30;99.90
57664;DHT22;43493;53.098;6.064;2022-09-09T08:31:16;18.20;99.90
57664;DHT22;43493;53.098;6.064;2022-09-09T08:38:42;17.90;99.90
57664;DHT22;43493;53.098;6.064;2022-09-09T08:44:01;17.90;99.90
57664;DHT22;43493;53.098;6.064;2022-09-09T08:46:44;18.00;99.90
57664;DHT22;43493;53.098;6.064;2022-09-09T08:52:16;18.20;99.90
57664;DHT22;43493;53.098;6.064;2022-09-09T08:54:43;18.30;99.90
57664;DHT22;43493;53.098;6.064;2022-09-09T08:57:16;18.30;99.90
57664;DHT22;43493;53.098;6.064;2022-09-09T08:59:44;18.40;99.90
57664;DHT22;43493;53.098;6.064;2022-09-09T09:08:26;18.30;99.90
57664;DHT22;43493;53.098;6.064;2022-09-09T09:10:56;18.30;99.90
57664;DHT22;43493;53.098;6.064;2022-09-09T09:13:54;18.20;99.90
57664;DHT22;43493;53.098;6.064;2022-09-09T09:16:33;18.30;99.90
57664;DHT22;43493;53.098;6.064;2022-09-09T09:19:00;18.30;99.90
57664;DHT22;43493;53.098;6.064;2022-09-09T09:21:39;18.40;99.90
57664;DHT22;43493;53.098;6.064;2022-09-09T09:24:30;18.40;99.90
57664;DHT22;43493;53.098;6.064;2022-09-09T09:27:00;18.40;99.90
57664;DHT22;43493;53.098;6.064;2022-09-09T09:29:32;18.40;99.90
57664;DHT22;43493;53.098;6.064;2022-09-09T09:32:02;18.40;99.90
57664;DHT22;43493;53.098;6.064;2022-09-09T09:34:28;18.30;99.90
57664;DHT22;43493;53.098;6.064;2022-09-09T09:36:56;18.40;99.90
57664;DHT22;43493;53.098;6.064;2022-09-09T09:39:30;18.40;99.90
57664;DHT22;43493;53.098;6.064;2022-09-09T09:41:57;18.40;99.90
57664;DHT22;43493;53.098;6.064;2022-09-09T09:44:32;18.30;99.90
57664;DHT22;43493;53.098;6.064;2022-09-09T09:47:08;18.20;99.90
57664;DHT22;43493;53.098;6.064;2022-09-09T09:49:34;18.10;99.90
57664;DHT22;43493;53.098;6.064;2022-09-09T09:52:04;18.00;99.90
57664;DHT22;43493;53.098;6.064;2022-09-09T09:54:33;18.10;99.90
57664;DHT22;43493;53.098;6.064;2022-09-09T09:57:26;18.20;99.90
57664;DHT22;43493;53.098;6.064;2022-09-09T10:00:25;18.20;99.90
57664;DHT22;43493;53.098;6.064;2022-09-09T10:02:51;18.30;99.90
57664;DHT22;43493;53.098;6.064;2022-09-09T10:05:24;18.40;99.90
57664;DHT22;43493;53.098;6.064;2022-09-09T10:08:04;18.40;99.90
57664;DHT22;43493;53.098;6.064;2022-09-09T10:16:38;18.50;99.90
57664;DHT22;43493;53.098;6.064;2022-09-09T10:19:15;18.50;99.90
57664;DHT22;43493;53.098;6.064;2022-09-09T10:24:35;18.30;99.90
57664;DHT22;43493;53.098;6.064;2022-09-09T10:27:23;18.20;99.90
57664;DHT22;43493;53.098;6.064;2022-09-09T10:35:33;18.30;99.90
57664;DHT22;43493;53.098;6.064;2022-09-09T10:38:13;18.40;99.90
57664;DHT22;43493;53.098;6.064;2022-09-09T10:46:29;18.70;99.90
57664;DHT22;43493;53.098;6.064;2022-09-09T10:54:36;18.90;99.90
57664;DHT22;43493;53.098;6.064;2022-09-09T12:05:40;19.40;99.90
57664;DHT22;43493;53.098;6.064;2022-09-09T12:08:11;19.70;99.90
57664;DHT22;43493;53.098;6.064;2022-09-09T12:10:41;19.50;99.90
57664;DHT22;43493;53.098;6.064;2022-09-09T12:13:20;19.40;99.90
57664;DHT22;43493;53.098;6.064;2022-09-09T12:15:51;19.40;99.90
57664;DHT22;43493;53.098;6.064;2022-09-09T12:18:40;19.50;99.90
57664;DHT22;43493;53.098;6.064;2022-09-09T12:21:13;19.50;99.90
57664;DHT22;43493;53.098;6.064;2022-09-09T12:24:51;19.50;99.90
57664;DHT22;43493;53.098;6.064;2022-09-09T12:29:53;19.50;99.90
57664;DHT22;43493;53.098;6.064;2022-09-09T12:32:24;19.50;99.90
57664;DHT22;43493;53.098;6.064;2022-09-09T12:34:54;19.30;99.90
57664;DHT22;43493;53.098;6.064;2022-09-09T12:40:27;19.50;99.90
57664;DHT22;43493;53.098;6.064;2022-09-09T12:42:53;19.60;99.90
57664;DHT22;43493;53.098;6.064;2022-09-09T12:45:25;19.60;99.90
57664;DHT22;43493;53.098;6.064;2022-09-09T12:48:07;19.80;99.90
57664;DHT22;43493;53.098;6.064;2022-09-09T12:50:38;19.90;99.90
57664;DHT22;43493;53.098;6.064;2022-09-09T12:53:12;19.90;99.90
57664;DHT22;43493;53.098;6.064;2022-09-09T12:55:52;19.90;99.90
57664;DHT22;43493;53.098;6.064;2022-09-09T12:58:20;19.90;99.90
57664;DHT22;43493;53.098;6.064;2022-09-09T13:00:53;20.00;99.90
57664;DHT22;43493;53.098;6.064;2022-09-09T13:03:22;20.00;99.90
57664;DHT22;43493;53.098;6.064;2022-09-09T13:05:49;20.00;99.90
57664;DHT22;43493;53.098;6.064;2022-09-09T13:08:17;20.00;99.90
57664;DHT22;43493;53.098;6.064;2022-09-09T13:10:58;19.90;99.90
57664;DHT22;43493;53.098;6.064;2022-09-09T13:13:35;19.80;99.90
57664;DHT22;43493;53.098;6.064;2022-09-09T13:16:02;19.60;99.90
57664;DHT22;43493;53.098;6.064;2022-09-09T13:18:32;19.50;99.90
57664;DHT22;43493;53.098;6.064;2022-09-09T13:20:59;19.30;99.90
57664;DHT22;43493;53.098;6.064;2022-09-09T13:23:33;19.20;99.90
57664;DHT22;43493;53.098;6.064;2022-09-09T13:26:06;19.20;99.90
57664;DHT22;43493;53.098;6.064;2022-09-09T13:28:44;19.10;99.90
57664;DHT22;43493;53.098;6.064;2022-09-09T13:31:23;19.10;99.90
57664;DHT22;43493;53.098;6.064;2022-09-09T13:33:49;19.00;99.90
57664;DHT22;43493;53.098;6.064;2022-09-09T13:36:15;18.80;99.90
57664;DHT22;43493;53.098;6.064;2022-09-09T13:38:54;18.70;99.90
57664;DHT22;43493;53.098;6.064;2022-09-09T13:41:46;18.70;99.90
57664;DHT22;43493;53.098;6.064;2022-09-09T13:44:28;18.70;99.90
57664;DHT22;43493;53.098;6.064;2022-09-09T13:47:06;18.70;99.90
57664;DHT22;43493;53.098;6.064;2022-09-09T13:49:42;18.80;99.90
57664;DHT22;43493;53.098;6.064;2022-09-09T13:52:12;19.00;99.90
57664;DHT22;43493;53.098;6.064;2022-09-09T13:54:39;19.00;99.90
57664;DHT22;43493;53.098;6.064;2022-09-09T13:57:11;19.00;99.90
57664;DHT22;43493;53.098;6.064;2022-09-09T13:59:40;19.00;99.90
57664;DHT22;43493;53.098;6.064;2022-09-09T14:02:07;19.10;99.90
57664;DHT22;43493;53.098;6.064;2022-09-09T14:04:32;19.30;99.90
57664;DHT22;43493;53.098;6.064;2022-09-09T14:07:01;19.40;99.90
57664;DHT22;43493;53.098;6.064;2022-09-09T14:09:27;19.50;99.90
57664;DHT22;43493;53.098;6.064;2022-09-09T14:11:52;19.40;99.90
57664;DHT22;43493;53.098;6.064;2022-09-09T14:14:18;19.40;99.90
57664;DHT22;43493;53.098;6.064;2022-09-09T14:16:44;19.30;99.90
57664;DHT22;43493;53.098;6.064;2022-09-09T14:19:10;19.20;99.90
57664;DHT22;43493;53.098;6.064;2022-09-09T14:21:35;19.30;99.90
57664;DHT22;43493;53.098;6.064;2022-09-09T14:24:01;19.40;99.90
57664;DHT22;43493;53.098;6.064;2022-09-09T14:26:27;19.40;99.90
57664;DHT22;43493;53.098;6.064;2022-09-09T14:28:54;19.50;99.90
57664;DHT22;43493;53.098;6.064;2022-09-09T14:31:20;19.50;99.90
57664;DHT22;43493;53.098;6.064;2022-09-09T14:33:52;19.60;99.90
57664;DHT22;43493;53.098;6.064;2022-09-09T14:36:18;19.60;99.90
57664;DHT22;43493;53.098;6.064;2022-09-09T14:38:44;19.70;99.90
57664;DHT22;43493;53.098;6.064;2022-09-09T14:41:15;19.60;99.90
57664;DHT22;43493;53.098;6.064;2022-09-09T14:43:45;19.60;99.90
57664;DHT22;43493;53.098;6.064;2022-09-09T14:46:13;19.60;99.90
57664;DHT22;43493;53.098;6.064;2022-09-09T14:48:40;19.60;99.90
57664;DHT22;43493;53.098;6.064;2022-09-09T14:51:13;19.50;99.90
57664;DHT22;43493;53.098;6.064;2022-09-09T14:53:41;19.50;99.90
57664;DHT22;43493;53.098;6.064;2022-09-09T14:56:15;19.40;99.90
57664;DHT22;43493;53.098;6.064;2022-09-09T14:58:42;19.30;99.90
57664;DHT22;43493;53.098;6.064;2022-09-09T15:01:10;19.30;99.90
57664;DHT22;43493;53.098;6.064;2022-09-09T15:03:37;19.30;99.90
57664;DHT22;43493;53.098;6.064;2022-09-09T15:06:08;19.20;99.90
57664;DHT22;43493;53.098;6.064;2022-09-09T15:08:35;19.20;99.90
57664;DHT22;43493;53.098;6.064;2022-09-09T15:11:02;19.10;99.90
57664;DHT22;43493;53.098;6.064;2022-09-09T15:13:28;19.00;99.90
57664;DHT22;43493;53.098;6.064;2022-09-09T15:15:54;18.80;99.90
57664;DHT22;43493;53.098;6.064;2022-09-09T16:56:38;17.60;99.90
57664;DHT22;43493;53.098;6.064;2022-09-09T16:59:06;17.50;99.90
57664;DHT22;43493;53.098;6.064;2022-09-09T17:01:35;17.60;99.90
57664;DHT22;43493;53.098;6.064;2022-09-09T17:04:05;17.50;99.90
57664;DHT22;43493;53.098;6.064;2022-09-09T17:06:32;17.60;99.90
57664;DHT22;43493;53.098;6.064;2022-09-09T17:09:05;17.50;99.90
57664;DHT22;43493;53.098;6.064;2022-09-09T17:11:31;17.50;99.90
57664;DHT22;43493;53.098;6.064;2022-09-09T17:13:58;17.50;99.90
57664;DHT22;43493;53.098;6.064;2022-09-09T17:16:25;17.50;99.90
57664;DHT22;43493;53.098;6.064;2022-09-09T17:18:53;17.60;99.90
57664;DHT22;43493;53.098;6.064;2022-09-09T17:21:21;17.60;99.90
57664;DHT22;43493;53.098;6.064;2022-09-09T17:23:49;17.60;99.90
57664;DHT22;43493;53.098;6.064;2022-09-09T17:26:17;17.60;99.90
57664;DHT22;43493;53.098;6.064;2022-09-09T17:28:43;17.60;99.90
57664;DHT22;43493;53.098;6.064;2022-09-09T17:31:13;17.60;99.90
57664;DHT22;43493;53.098;6.064;2022-09-09T17:33:43;17.60;99.90
57664;DHT22;43493;53.098;6.064;2022-09-09T17:36:18;17.50;99.90
57664;DHT22;43493;53.098;6.064;2022-09-09T17:38:43;17.50;99.90
57664;DHT22;43493;53.098;6.064;2022-09-09T17:41:18;17.50;99.90
57664;DHT22;43493;53.098;6.064;2022-09-09T17:43:44;17.50;99.90
57664;DHT22;43493;53.098;6.064;2022-09-09T17:48:38;17.50;99.90
57664;DHT22;43493;53.098;6.064;2022-09-09T17:51:08;17.50;99.90
57664;DHT22;43493;53.098;6.064;2022-09-09T17:53:42;17.50;99.90
57664;DHT22;43493;53.098;6.064;2022-09-09T17:56:11;17.40;99.90
57664;DHT22;43493;53.098;6.064;2022-09-09T17:58:37;17.40;99.90
57664;DHT22;43493;53.098;6.064;2022-09-09T18:01:11;17.40;99.90
57664;DHT22;43493;53.098;6.064;2022-09-09T18:03:39;17.40;99.90
57664;DHT22;43493;53.098;6.064;2022-09-09T18:06:07;17.40;99.90
57664;DHT22;43493;53.098;6.064;2022-09-09T18:08:34;17.40;99.90
57664;DHT22;43493;53.098;6.064;2022-09-09T18:11:01;17.30;99.90
57664;DHT22;43493;53.098;6.064;2022-09-09T18:13:27;17.30;99.90
57664;DHT22;43493;53.098;6.064;2022-09-09T18:15:54;17.30;99.90
57664;DHT22;43493;53.098;6.064;2022-09-09T18:18:21;17.20;99.90
57664;DHT22;43493;53.098;6.064;2022-09-09T18:21:00;17.20;99.90
57664;DHT22;43493;53.098;6.064;2022-09-09T18:23:33;17.20;99.90
57664;DHT22;43493;53.098;6.064;2022-09-09T18:25:59;17.10;99.90
57664;DHT22;43493;53.098;6.064;2022-09-09T18:28:26;17.20;99.90
57664;DHT22;43493;53.098;6.064;2022-09-09T18:30:52;17.20;99.90
57664;DHT22;43493;53.098;6.064;2022-09-09T18:33:18;17.10;99.90
57664;DHT22;43493;53.098;6.064;2022-09-09T18:35:44;17.10;99.90
57664;DHT22;43493;53.098;6.064;2022-09-09T18:38:11;17.10;99.90
57664;DHT22;43493;53.098;6.064;2022-09-09T18:40:37;17.10;99.90
57664;DHT22;43493;53.098;6.064;2022-09-09T18:43:03;17.20;99.90
57664;DHT22;43493;53.098;6.064;2022-09-09T18:45:30;17.20;99.90
57664;DHT22;43493;53.098;6.064;2022-09-09T18:47:59;17.20;99.90
57664;DHT22;43493;53.098;6.064;2022-09-09T18:50:25;17.10;99.90
57664;DHT22;43493;53.098;6.064;2022-09-09T18:52:51;17.10;99.90
57664;DHT22;43493;53.098;6.064;2022-09-09T18:55:17;17.10;99.90
57664;DHT22;43493;53.098;6.064;2022-09-09T18:57:43;17.00;99.90
57664;DHT22;43493;53.098;6.064;2022-09-09T19:00:09;17.00;99.90
57664;DHT22;43493;53.098;6.064;2022-09-09T19:02:36;17.00;99.90
57664;DHT22;43493;53.098;6.064;2022-09-09T19:05:03;17.00;99.90
57664;DHT22;43493;53.098;6.064;2022-09-09T19:07:29;17.00;99.90
57664;DHT22;43493;53.098;6.064;2022-09-09T19:09:55;17.00;99.90
57664;DHT22;43493;53.098;6.064;2022-09-09T19:12:20;17.00;99.90
57664;DHT22;43493;53.098;6.064;2022-09-09T19:14:46;17.00;99.90
57664;DHT22;43493;53.098;6.064;2022-09-09T19:17:12;17.00;99.90
57664;DHT22;43493;53.098;6.064;2022-09-09T19:19:38;17.00;99.90
57664;DHT22;43493;53.098;6.064;2022-09-09T19:22:07;17.00;99.90
57664;DHT22;43493;53.098;6.064;2022-09-09T19:24:36;16.90;99.90
57664;DHT22;43493;53.098;6.064;2022-09-09T19:27:08;16.90;99.90
57664;DHT22;43493;53.098;6.064;2022-09-09T19:29:36;16.90;99.90
57664;DHT22;43493;53.098;6.064;2022-09-09T19:32:04;17.00;99.90
57664;DHT22;43493;53.098;6.064;2022-09-09T19:34:30;17.00;99.90
57664;DHT22;43493;53.098;6.064;2022-09-09T19:36:56;16.90;99.90
57664;DHT22;43493;53.098;6.064;2022-09-09T19:39:25;17.00;99.90
57664;DHT22;43493;53.098;6.064;2022-09-09T19:41:51;16.90;99.90
57664;DHT22;43493;53.098;6.064;2022-09-09T19:44:16;16.90;99.90
57664;DHT22;43493;53.098;6.064;2022-09-09T19:46:43;16.90;99.90
57664;DHT22;43493;53.098;6.064;2022-09-09T19:49:13;16.90;99.90
57664;DHT22;43493;53.098;6.064;2022-09-09T19:51:40;16.90;99.90
57664;DHT22;43493;53.098;6.064;2022-09-09T19:54:10;16.80;99.90
57664;DHT22;43493;53.098;6.064;2022-09-09T19:56:39;16.80;99.90
57664;DHT22;43493;53.098;6.064;2022-09-09T19:59:07;16.80;99.90
57664;DHT22;43493;53.098;6.064;2022-09-09T20:01:35;16.80;99.90
57664;DHT22;43493;53.098;6.064;2022-09-09T20:04:02;16.70;99.90
57664;DHT22;43493;53.098;6.064;2022-09-09T20:06:31;16.80;99.90
57664;DHT22;43493;53.098;6.064;2022-09-09T20:08:58;16.70;99.90
57664;DHT22;43493;53.098;6.064;2022-09-09T20:11:25;16.70;99.90